Time;durP1;ratioP1;P1;durP2;ratioP2;P2;SDS_P1;SDS_P2;PMS_P1;PMS_P2;Temp;Humidity;BMP_temperature;BMP_pressure;BME280_temperature;BME280_humidity;BME280_pressure;Samples;Min_cycle;Max_cycle;Signal;HPM_P1;HPM_P2
2023/09/03 00:00:22;;;;;;;10.93;4.10;;;;;;;;;;5032689;28;20255;-72
2023/09/03 00:02:47;;;;;;;6.65;3.95;;;;;;;;;;5023174;28;20303;-72
2023/09/03 00:05:13;;;;;;;11.02;4.18;;;;;;;;;;5013267;28;20409;-72
2023/09/03 00:07:38;;;;;;;9.67;3.60;;;;;;;;;;5013280;28;20485;-72
2023/09/03 00:10:03;;;;;;;8.23;4.07;;;;;;;;;;5031289;28;20029;-72
2023/09/03 00:12:28;;;;;;;9.55;4.60;;;;;;;;;;5032431;28;20026;-71
2023/09/03 00:14:54;;;;;;;11.87;4.23;;;;;;;;;;5025480;28;20400;-72
2023/09/03 00:17:19;;;;;;;9.38;4.10;;;;;;;;;;5013002;28;20470;-72
2023/09/03 00:19:44;;;;;;;12.90;4.37;;;;;;;;;;5013140;28;20080;-72
2023/09/03 00:22:10;;;;;;;10.35;4.28;;;;;;;;;;5013016;28;20655;-72
2023/09/03 00:24:35;;;;;;;8.33;3.70;;;;;;;;;;5023277;28;20068;-72
2023/09/03 00:27:00;;;;;;;9.02;3.90;;;;;;;;;;5032872;28;20021;-72
2023/09/03 00:29:26;;;;;;;10.18;3.53;;;;;;;;;;5017066;28;20029;-72
2023/09/03 00:31:51;;;;;;;10.93;3.80;;;;;;;;;;5016903;28;20037;-72
2023/09/03 00:34:17;;;;;;;13.77;4.07;;;;;;;;;;5016778;28;20060;-72
2023/09/03 00:36:42;;;;;;;7.20;4.53;;;;;;;;;;5016973;28;20283;-64
2023/09/03 00:39:07;;;;;;;6.00;3.43;;;;;;;;;;5016652;28;20109;-64
2023/09/03 00:41:32;;;;;;;8.63;3.13;;;;;;;;;;5035821;28;20029;-64
2023/09/03 00:43:57;;;;;;;9.40;4.50;;;;;;;;;;5034677;28;20021;-64
2023/09/03 00:46:23;;;;;;;8.40;3.50;;;;;;;;;;5029827;28;20029;-64
2023/09/03 00:48:49;;;;;;;12.30;3.92;;;;;;;;;;5016618;28;20274;-64
2023/09/03 00:51:15;;;;;;;9.15;3.47;;;;;;;;;;5016454;28;20014;-64
2023/09/03 00:53:43;;;;;;;7.80;4.10;;;;;;;;;;5016336;28;20100;-64
2023/09/03 00:56:10;;;;;;;12.32;3.88;;;;;;;;;;5034936;28;20040;-64
2023/09/03 00:58:36;;;;;;;6.50;4.10;;;;;;;;;;5036330;28;20366;-64
2023/09/03 01:01:01;;;;;;;6.82;3.85;;;;;;;;;;5035954;28;20021;-64
2023/09/03 01:03:26;;;;;;;10.38;4.18;;;;;;;;;;5024679;28;20033;-64
2023/09/03 01:05:52;;;;;;;7.57;3.60;;;;;;;;;;5016704;28;20097;-64
2023/09/03 01:08:18;;;;;;;24.10;4.63;;;;;;;;;;5016289;28;20318;-64
2023/09/03 01:11:03;;;;;;;11.73;4.28;;;;;;;;;;5017368;28;20362;-64
2023/09/03 01:13:28;;;;;;;5.57;3.13;;;;;;;;;;5016246;28;20018;-64
2023/09/03 01:15:56;;;;;;;5.43;3.23;;;;;;;;;;5019916;28;20025;-64
2023/09/03 01:18:23;;;;;;;8.95;3.53;;;;;;;;;;5035161;28;20009;-64
2023/09/03 01:20:58;;;;;;;5.90;3.30;;;;;;;;;;5025463;28;20018;-64
2023/09/03 01:23:42;;;;;;;7.30;3.38;;;;;;;;;;5015805;28;20014;-64
2023/09/03 01:26:13;;;;;;;5.72;3.70;;;;;;;;;;5017073;28;20112;-64
2023/09/03 01:28:39;;;;;;;7.70;3.13;;;;;;;;;;5015631;28;20017;-64
2023/09/03 01:31:11;;;;;;;5.30;3.42;;;;;;;;;;5015587;28;20049;-65
2023/09/03 01:33:37;;;;;;;;;;;;;;;;;;5035323;28;20026;-64
2023/09/03 01:36:06;;;;;;;6.38;3.13;;;;;;;;;;5028179;28;19909;-64
2023/09/03 01:38:31;;;;;;;5.70;3.58;;;;;;;;;;5015768;28;20508;-64
2023/09/03 01:40:57;;;;;;;15.17;3.80;;;;;;;;;;5015394;28;20049;-64
2023/09/03 01:43:23;;;;;;;13.00;3.47;;;;;;;;;;5015649;28;20262;-64
2023/09/03 01:46:06;;;;;;;9.63;3.88;;;;;;;;;;5017359;28;20603;-64
2023/09/03 01:48:34;;;;;;;9.30;3.70;;;;;;;;;;5018566;28;20049;-64
2023/09/03 01:51:06;;;;;;;5.97;3.63;;;;;;;;;;5015558;28;20048;-64
2023/09/03 01:53:36;;;;;;;5.90;3.28;;;;;;;;;;5034759;28;20482;-64
2023/09/03 01:56:02;;;;;;;12.18;3.90;;;;;;;;;;5034385;28;20029;-64
2023/09/03 01:58:29;;;;;;;11.98;3.75;;;;;;;;;;5034345;28;20539;-64
2023/09/03 02:00:55;;;;;;;8.88;4.28;;;;;;;;;;5034552;28;20469;-64
2023/09/03 02:03:21;;;;;;;8.85;3.80;;;;;;;;;;5034308;28;20013;-64
2023/09/03 02:05:46;;;;;;;7.20;3.80;;;;;;;;;;5017150;28;20014;-64
2023/09/03 02:08:11;;;;;;;4.43;2.90;;;;;;;;;;5026053;28;20036;-64
2023/09/03 02:10:36;;;;;;;11.60;3.70;;;;;;;;;;5034126;28;20013;-64
2023/09/03 02:13:02;;;;;;;10.67;3.47;;;;;;;;;;5034122;28;20259;-64
2023/09/03 02:15:27;;;;;;;10.80;2.97;;;;;;;;;;5031499;28;20421;-64
2023/09/03 02:17:53;;;;;;;11.67;3.70;;;;;;;;;;5014778;28;20077;-64
2023/09/03 02:20:18;;;;;;;5.82;3.30;;;;;;;;;;5014722;28;20271;-64
2023/09/03 02:22:43;;;;;;;5.60;3.63;;;;;;;;;;5016108;28;20084;-64
2023/09/03 02:25:09;;;;;;;9.20;3.73;;;;;;;;;;5033877;28;20277;-64
2023/09/03 02:27:34;;;;;;;6.25;3.15;;;;;;;;;;5033792;28;20025;-64
2023/09/03 02:29:59;;;;;;;9.23;3.27;;;;;;;;;;5033498;28;20104;-64
2023/09/03 02:32:24;;;;;;;5.25;2.70;;;;;;;;;;5033983;28;20259;-64
2023/09/03 02:34:50;;;;;;;4.37;3.10;;;;;;;;;;5033730;28;20029;-65
2023/09/03 02:37:15;;;;;;;7.60;3.23;;;;;;;;;;5033386;28;20290;-64
2023/09/03 02:39:41;;;;;;;5.30;3.30;;;;;;;;;;5023212;28;20478;-64
2023/09/03 02:42:06;;;;;;;11.38;3.65;;;;;;;;;;5033721;28;20079;-64
2023/09/03 02:44:31;;;;;;;5.20;2.80;;;;;;;;;;5033569;28;20465;-64
2023/09/03 02:46:56;;;;;;;5.37;2.83;;;;;;;;;;5016136;28;20794;-64
2023/09/03 02:49:22;;;;;;;9.60;3.40;;;;;;;;;;5025379;28;20021;-64
2023/09/03 02:51:47;;;;;;;7.47;3.55;;;;;;;;;;5020214;28;20259;-64
2023/09/03 02:54:12;;;;;;;8.70;3.15;;;;;;;;;;5014097;28;20034;-64
2023/09/03 02:56:37;;;;;;;5.23;3.43;;;;;;;;;;4998777;28;20483;-72
2023/09/03 02:59:03;;;;;;;3.80;2.67;;;;;;;;;;4994654;28;20522;-72
2023/09/03 03:01:28;;;;;;;5.43;3.17;;;;;;;;;;5018596;28;20031;-72
2023/09/03 03:03:53;;;;;;;9.83;2.50;;;;;;;;;;5019240;28;20026;-72
2023/09/03 03:06:18;;;;;;;8.15;2.75;;;;;;;;;;5030721;28;20029;-72
2023/09/03 03:08:44;;;;;;;4.70;2.57;;;;;;;;;;5033069;28;20028;-72
2023/09/03 03:11:10;;;;;;;9.67;2.90;;;;;;;;;;5033100;28;20259;-72
2023/09/03 03:13:37;;;;;;;4.90;2.47;;;;;;;;;;5031654;28;20254;-71
2023/09/03 03:16:06;;;;;;;6.63;2.30;;;;;;;;;;5022457;28;20084;-72
2023/09/03 03:18:32;;;;;;;6.95;2.28;;;;;;;;;;5013999;28;20060;-71
2023/09/03 03:21:07;;;;;;;4.18;2.45;;;;;;;;;;5013720;28;20030;-72
2023/09/03 03:23:36;;;;;;;3.28;2.42;;;;;;;;;;5006181;28;20018;-72
2023/09/03 03:26:02;;;;;;;8.25;2.72;;;;;;;;;;5013744;28;20033;-71
2023/09/03 03:28:29;;;;;;;8.77;2.90;;;;;;;;;;5022548;28;20021;-72
2023/09/03 03:30:55;;;;;;;4.38;2.40;;;;;;;;;;5032806;28;20025;-72
2023/09/03 03:33:20;;;;;;;5.43;3.00;;;;;;;;;;5033004;28;20469;-72
2023/09/03 03:35:46;;;;;;;6.37;3.23;;;;;;;;;;5032413;28;20048;-71
2023/09/03 03:38:11;;;;;;;5.27;2.30;;;;;;;;;;5032689;28;20025;-72
2023/09/03 03:40:36;;;;;;;7.87;2.40;;;;;;;;;;5032685;28;20024;-72
2023/09/03 03:43:01;;;;;;;3.97;2.67;;;;;;;;;;5031080;28;20369;-72
2023/09/03 03:45:26;;;;;;;4.43;2.23;;;;;;;;;;5014604;28;20426;-72
2023/09/03 03:47:52;;;;;;;3.87;2.57;;;;;;;;;;5013163;28;20490;-72
2023/09/03 03:50:17;;;;;;;6.33;2.80;;;;;;;;;;5013408;28;20028;-72
2023/09/03 03:52:42;;;;;;;5.03;2.43;;;;;;;;;;5013361;28;20026;-72
2023/09/03 03:55:07;;;;;;;4.80;2.63;;;;;;;;;;5013324;28;20080;-72
2023/09/03 03:57:32;;;;;;;9.95;2.30;;;;;;;;;;5013603;28;20474;-72
2023/09/03 03:59:58;;;;;;;6.43;3.10;;;;;;;;;;5025773;28;20430;-71
2023/09/03 04:02:23;;;;;;;8.98;2.75;;;;;;;;;;5036764;28;20662;-72
2023/09/03 04:04:52;;;;;;;4.07;2.67;;;;;;;;;;5036514;28;20064;-72
2023/09/03 04:07:17;;;;;;;7.00;2.97;;;;;;;;;;5018504;28;20647;-64
2023/09/03 04:09:42;;;;;;;7.63;3.27;;;;;;;;;;5020541;28;20014;-64
2023/09/03 04:12:07;;;;;;;5.77;2.50;;;;;;;;;;5030198;28;20030;-64
2023/09/03 04:14:32;;;;;;;4.28;2.72;;;;;;;;;;5018157;28;20030;-64
2023/09/03 04:16:58;;;;;;;5.70;2.50;;;;;;;;;;5017160;28;20037;-64
2023/09/03 04:19:23;;;;;;;7.03;2.73;;;;;;;;;;5016872;28;20259;-64
2023/09/03 04:21:48;;;;;;;5.17;2.07;;;;;;;;;;5016883;28;20048;-64
2023/09/03 04:24:13;;;;;;;4.77;2.40;;;;;;;;;;5016965;28;20608;-64
2023/09/03 04:26:38;;;;;;;3.93;2.50;;;;;;;;;;5016901;28;20021;-64
2023/09/03 04:29:05;;;;;;;8.83;2.50;;;;;;;;;;5016868;28;20029;-64
2023/09/03 04:31:31;;;;;;;5.78;2.42;;;;;;;;;;5035180;28;20036;-64
2023/09/03 04:33:56;;;;;;;3.78;2.20;;;;;;;;;;5036060;28;20025;-64
2023/09/03 04:36:22;;;;;;;5.67;2.60;;;;;;;;;;5035928;28;20060;-64
2023/09/03 04:38:47;;;;;;;11.50;2.05;;;;;;;;;;5035546;28;20068;-64
2023/09/03 04:41:12;;;;;;;7.43;2.20;;;;;;;;;;5035798;28;20033;-64
2023/09/03 04:43:37;;;;;;;9.53;2.10;;;;;;;;;;5027883;28;20029;-64
2023/09/03 04:46:03;;;;;;;8.20;2.57;;;;;;;;;;5026386;28;20258;-64
2023/09/03 04:48:28;;;;;;;3.67;2.50;;;;;;;;;;5036133;28;20417;-64
2023/09/03 04:50:53;;;;;;;3.57;2.37;;;;;;;;;;5036559;28;20478;-64
2023/09/03 04:53:18;;;;;;;7.25;2.58;;;;;;;;;;5035130;28;20021;-64
2023/09/03 04:55:44;;;;;;;4.10;2.70;;;;;;;;;;5016599;28;20382;-64
2023/09/03 04:58:09;;;;;;;4.47;2.60;;;;;;;;;;5016345;28;20478;-64
2023/09/03 05:00:34;;;;;;;3.10;2.37;;;;;;;;;;5016234;28;20802;-64
2023/09/03 05:03:01;;;;;;;5.73;2.47;;;;;;;;;;5016063;28;20766;-64
2023/09/03 05:05:26;;;;;;;5.70;2.15;;;;;;;;;;5023023;28;20789;-64
2023/09/03 05:07:51;;;;;;;5.37;2.97;;;;;;;;;;5035072;28;20029;-64
2023/09/03 05:10:17;;;;;;;7.55;2.10;;;;;;;;;;5035044;28;20076;-64
2023/09/03 05:12:43;;;;;;;4.03;2.20;;;;;;;;;;5035184;28;20021;-64
2023/09/03 05:15:09;;;;;;;8.82;2.42;;;;;;;;;;5034851;28;20061;-65
2023/09/03 05:17:34;;;;;;;5.53;2.40;;;;;;;;;;5035295;28;20053;-72
2023/09/03 05:19:59;;;;;;;3.70;2.10;;;;;;;;;;5035208;28;20060;-71
2023/09/03 05:22:24;;;;;;;4.20;2.40;;;;;;;;;;5018318;28;20276;-72
2023/09/03 05:24:50;;;;;;;3.37;1.87;;;;;;;;;;5015835;28;20029;-72
2023/09/03 05:27:15;;;;;;;3.80;2.17;;;;;;;;;;5015677;28;20021;-72
2023/09/03 05:29:40;;;;;;;2.87;1.80;;;;;;;;;;5031822;28;20324;-72
2023/09/03 05:32:05;;;;;;;3.42;2.20;;;;;;;;;;5015992;28;20026;-71
2023/09/03 05:34:31;;;;;;;3.40;1.77;;;;;;;;;;5015882;28;20029;-71
2023/09/03 05:36:56;;;;;;;6.33;2.03;;;;;;;;;;5023692;28;20030;-71
2023/09/03 05:39:21;;;;;;;6.43;2.50;;;;;;;;;;5015554;28;20263;-72
2023/09/03 05:41:46;;;;;;;3.40;2.13;;;;;;;;;;5015326;28;20036;-71
2023/09/03 05:44:13;;;;;;;5.55;2.00;;;;;;;;;;5015704;28;20266;-71
2023/09/03 05:46:38;;;;;;;6.93;2.33;;;;;;;;;;5015120;28;20022;-72
2023/09/03 05:49:04;;;;;;;4.53;2.50;;;;;;;;;;5015572;28;20148;-71
2023/09/03 05:51:29;;;;;;;4.57;2.33;;;;;;;;;;5015406;28;20018;-72
2023/09/03 05:53:54;;;;;;;9.65;2.60;;;;;;;;;;5032278;28;20083;-72
2023/09/03 05:56:19;;;;;;;6.25;3.20;;;;;;;;;;5034652;28;20495;-71
2023/09/03 05:58:45;;;;;;;7.05;3.38;;;;;;;;;;5033143;28;20032;-72
2023/09/03 06:01:11;;;;;;;5.07;2.95;;;;;;;;;;5033999;28;20031;-71
2023/09/03 06:03:37;;;;;;;5.55;2.55;;;;;;;;;;5023064;28;20026;-72
2023/09/03 06:06:06;;;;;;;5.95;2.55;;;;;;;;;;5029642;28;20057;-71
2023/09/03 06:08:32;;;;;;;4.53;2.92;;;;;;;;;;5024876;28;20018;-71
2023/09/03 06:10:57;;;;;;;6.82;2.90;;;;;;;;;;5015010;28;20030;-72
2023/09/03 06:13:26;;;;;;;2.95;2.10;;;;;;;;;;5014957;28;20381;-71
2023/09/03 06:15:51;;;;;;;4.00;2.63;;;;;;;;;;5015090;28;20515;-71
2023/09/03 06:18:16;;;;;;;7.33;2.30;;;;;;;;;;5015089;28;20104;-71
2023/09/03 06:20:41;;;;;;;3.58;2.25;;;;;;;;;;5015603;28;20266;-71
2023/09/03 06:23:07;;;;;;;7.20;2.50;;;;;;;;;;5024779;28;20064;-71
2023/09/03 06:25:32;;;;;;;3.90;2.33;;;;;;;;;;5029725;28;20017;-73
2023/09/03 06:27:57;;;;;;;7.20;2.80;;;;;;;;;;5034266;28;20108;-65
2023/09/03 06:30:22;;;;;;;4.80;2.53;;;;;;;;;;5033797;28;20025;-65
2023/09/03 06:32:48;;;;;;;7.57;2.37;;;;;;;;;;5034062;28;20025;-65
2023/09/03 06:35:13;;;;;;;4.45;2.38;;;;;;;;;;5034381;28;20022;-65
2023/09/03 06:37:39;;;;;;;7.13;2.78;;;;;;;;;;5025092;28;20098;-65
2023/09/03 06:40:05;;;;;;;10.15;2.58;;;;;;;;;;5014653;28;20032;-65
2023/09/03 06:42:30;;;;;;;4.32;2.70;;;;;;;;;;5018508;28;20041;-65
2023/09/03 06:44:56;;;;;;;11.10;3.10;;;;;;;;;;5014379;28;20022;-65
2023/09/03 06:47:21;;;;;;;6.63;2.80;;;;;;;;;;5014072;28;20322;-64
2023/09/03 06:49:49;;;;;;;8.60;3.07;;;;;;;;;;5004308;28;20054;-65
2023/09/03 06:52:15;;;;;;;5.80;3.25;;;;;;;;;;5012546;28;20033;-65
2023/09/03 06:54:40;;;;;;;11.07;3.00;;;;;;;;;;5013471;28;20033;-65
2023/09/03 06:57:05;;;;;;;14.00;3.80;;;;;;;;;;5013509;28;20263;-65
2023/09/03 06:59:30;;;;;;;7.30;3.15;;;;;;;;;;5011904;28;20271;-65
2023/09/03 07:01:55;;;;;;;8.70;3.63;;;;;;;;;;5009494;28;20390;-65
2023/09/03 07:04:21;;;;;;;8.00;3.03;;;;;;;;;;5012466;28;20022;-65
2023/09/03 07:06:46;;;;;;;6.45;2.80;;;;;;;;;;5013050;28;20413;-65
2023/09/03 07:09:11;;;;;;;7.03;3.77;;;;;;;;;;5006298;28;20463;-65
2023/09/03 07:11:36;;;;;;;7.30;3.43;;;;;;;;;;5012546;28;20057;-65
2023/09/03 07:14:02;;;;;;;14.87;3.87;;;;;;;;;;5013461;28;20026;-65
2023/09/03 07:16:27;;;;;;;8.37;3.30;;;;;;;;;;5005816;28;20030;-65
2023/09/03 07:18:52;;;;;;;6.40;3.30;;;;;;;;;;5005144;28;20291;-65
2023/09/03 07:21:19;;;;;;;4.70;2.97;;;;;;;;;;5013332;28;20100;-65
2023/09/03 07:23:44;;;;;;;6.75;3.50;;;;;;;;;;5013973;28;20052;-65
2023/09/03 07:26:10;;;;;;;8.63;3.17;;;;;;;;;;5008242;28;20030;-65
2023/09/03 07:28:36;;;;;;;10.67;4.30;;;;;;;;;;4993487;28;20027;-64
2023/09/03 07:31:01;;;;;;;7.82;4.05;;;;;;;;;;5004209;28;20264;-65
2023/09/03 07:33:26;;;;;;;7.47;3.90;;;;;;;;;;5012550;28;20040;-65
2023/09/03 07:35:52;;;;;;;15.90;4.05;;;;;;;;;;5012808;28;20033;-65
2023/09/03 07:38:17;;;;;;;11.37;3.83;;;;;;;;;;5013499;28;20025;-71
2023/09/03 07:40:43;;;;;;;6.60;3.40;;;;;;;;;;5013182;28;20021;-71
2023/09/03 07:43:08;;;;;;;5.57;3.40;;;;;;;;;;5013036;28;20026;-70
2023/09/03 07:45:33;;;;;;;6.85;3.33;;;;;;;;;;5009697;28;20248;-70
2023/09/03 07:47:58;;;;;;;5.93;3.10;;;;;;;;;;5001471;28;20096;-70
2023/09/03 07:50:23;;;;;;;8.17;2.77;;;;;;;;;;5009759;28;20026;-68
2023/09/03 07:52:49;;;;;;;5.77;3.20;;;;;;;;;;5012852;28;20018;-72
2023/09/03 07:55:14;;;;;;;8.30;3.27;;;;;;;;;;5013243;28;20389;-72
2023/09/03 07:57:40;;;;;;;7.07;2.78;;;;;;;;;;5005020;28;20026;-71
2023/09/03 08:00:05;;;;;;;7.97;2.57;;;;;;;;;;5012881;28;20076;-71
2023/09/03 08:02:30;;;;;;;8.65;2.88;;;;;;;;;;5005009;28;20753;-71
2023/09/03 08:04:56;;;;;;;9.43;2.50;;;;;;;;;;5012121;28;20033;-72
2023/09/03 08:07:21;;;;;;;5.40;2.60;;;;;;;;;;5007881;28;20022;-72
2023/09/03 08:09:46;;;;;;;5.87;2.53;;;;;;;;;;4993503;28;20301;-72
2023/09/03 08:12:12;;;;;;;4.83;2.60;;;;;;;;;;4995824;28;20271;-72
2023/09/03 08:14:37;;;;;;;7.60;2.53;;;;;;;;;;5012936;28;20030;-71
2023/09/03 08:17:03;;;;;;;6.72;2.20;;;;;;;;;;5019797;28;20393;-72
2023/09/03 08:19:28;;;;;;;4.30;2.47;;;;;;;;;;5030532;28;20024;-70
2023/09/03 08:21:53;;;;;;;5.03;2.00;;;;;;;;;;5030336;28;20017;-71
2023/09/03 08:24:18;;;;;;;4.67;1.97;;;;;;;;;;5030127;28;20335;-71
2023/09/03 08:26:44;;;;;;;4.20;1.97;;;;;;;;;;5025989;28;20097;-69
2023/09/03 08:29:09;;;;;;;4.57;2.00;;;;;;;;;;5011269;28;20025;-71
2023/09/03 08:31:34;;;;;;;2.50;1.57;;;;;;;;;;5018735;28;20274;-71
2023/09/03 08:33:59;;;;;;;3.20;1.70;;;;;;;;;;5010962;28;20061;-70
2023/09/03 08:36:25;;;;;;;3.87;1.80;;;;;;;;;;5012676;28;20105;-71
2023/09/03 08:38:50;;;;;;;3.83;2.03;;;;;;;;;;5013216;28;20393;-71
2023/09/03 08:41:17;;;;;;;3.58;1.60;;;;;;;;;;5012910;28;20076;-71
2023/09/03 08:43:43;;;;;;;3.10;1.55;;;;;;;;;;5012918;28;20021;-71
2023/09/03 08:46:14;;;;;;;3.55;1.75;;;;;;;;;;5023405;28;20021;-71
2023/09/03 08:48:39;;;;;;;2.00;1.30;;;;;;;;;;5025064;28;20473;-65
2023/09/03 08:51:04;;;;;;;3.87;1.50;;;;;;;;;;5016515;28;20049;-65
2023/09/03 08:53:31;;;;;;;4.43;1.35;;;;;;;;;;5016522;28;20113;-64
2023/09/03 08:55:57;;;;;;;3.80;1.60;;;;;;;;;;5016544;28;20095;-65
2023/09/03 08:58:23;;;;;;;3.88;1.75;;;;;;;;;;5027594;28;20029;-65
2023/09/03 09:00:48;;;;;;;2.43;1.40;;;;;;;;;;5033824;28;20047;-65
2023/09/03 09:03:14;;;;;;;3.37;1.60;;;;;;;;;;5016189;28;20414;-64
2023/09/03 09:05:43;;;;;;;1.63;1.30;;;;;;;;;;5016098;28;20049;-65
2023/09/03 09:08:08;;;;;;;3.45;1.30;;;;;;;;;;5033985;28;20017;-65
2023/09/03 09:10:37;;;;;;;2.40;1.40;;;;;;;;;;5035614;28;20040;-65
2023/09/03 09:13:02;;;;;;;2.10;1.35;;;;;;;;;;5033719;28;20057;-65
2023/09/03 09:15:27;;;;;;;2.47;1.60;;;;;;;;;;5016056;28;20042;-65
2023/09/03 09:17:52;;;;;;;4.07;1.57;;;;;;;;;;5015947;28;20053;-65
2023/09/03 09:20:18;;;;;;;3.80;1.53;;;;;;;;;;5011248;28;20496;-65
2023/09/03 09:22:43;;;;;;;3.05;1.48;;;;;;;;;;5015772;28;20032;-65
2023/09/03 09:25:12;;;;;;;3.30;1.97;;;;;;;;;;5015816;28;20030;-65
2023/09/03 09:27:37;;;;;;;2.95;1.35;;;;;;;;;;5019368;28;20421;-65
2023/09/03 09:30:10;;;;;;;3.15;1.60;;;;;;;;;;5034916;28;20113;-65
2023/09/03 09:32:35;;;;;;;3.25;1.58;;;;;;;;;;5034811;28;20036;-65
2023/09/03 09:35:00;;;;;;;3.30;1.43;;;;;;;;;;5034964;28;20029;-65
2023/09/03 09:37:35;;;;;;;4.97;1.50;;;;;;;;;;5018692;28;20029;-65
2023/09/03 09:40:00;;;;;;;3.28;1.60;;;;;;;;;;5008904;28;20026;-65
2023/09/03 09:42:26;;;;;;;2.53;1.60;;;;;;;;;;5015495;28;20437;-65
2023/09/03 09:44:51;;;;;;;5.10;1.63;;;;;;;;;;5015432;28;20018;-64
2023/09/03 09:47:16;;;;;;;2.77;1.37;;;;;;;;;;5015231;28;20057;-65
2023/09/03 09:49:45;;;;;;;4.22;1.58;;;;;;;;;;5022027;28;20448;-65
2023/09/03 09:52:12;;;;;;;4.97;1.77;;;;;;;;;;5024727;28;20037;-65
2023/09/03 09:54:41;;;;;;;4.07;1.75;;;;;;;;;;5023744;28;20397;-65
2023/09/03 09:57:24;;;;;;;6.00;2.00;;;;;;;;;;5029014;28;20397;-70
2023/09/03 09:59:53;;;;;;;3.08;1.73;;;;;;;;;;5015195;28;20010;-70
2023/09/03 10:02:19;;;;;;;2.53;1.40;;;;;;;;;;5015240;28;20354;-71
2023/09/03 10:04:45;;;;;;;2.63;1.95;;;;;;;;;;5019872;28;20028;-71
2023/09/03 10:07:11;;;;;;;2.75;1.85;;;;;;;;;;5034016;28;20036;-70
2023/09/03 10:09:37;;;;;;;4.63;1.60;;;;;;;;;;5031451;28;20026;-70
2023/09/03 10:12:03;;;;;;;1.98;1.63;;;;;;;;;;5015216;28;20038;-70
2023/09/03 10:14:28;;;;;;;3.15;1.90;;;;;;;;;;5014797;28;20026;-70
2023/09/03 10:16:55;;;;;;;3.58;1.48;;;;;;;;;;5014816;28;20034;-70
2023/09/03 10:19:23;;;;;;;3.13;1.73;;;;;;;;;;5014843;28;20057;-71
2023/09/03 10:21:49;;;;;;;2.05;1.50;;;;;;;;;;5014659;28;20076;-70
2023/09/03 10:24:15;;;;;;;3.05;1.65;;;;;;;;;;5014715;28;20458;-70
2023/09/03 10:26:43;;;;;;;3.53;1.80;;;;;;;;;;5029286;28;20519;-69
2023/09/03 10:29:10;;;;;;;3.67;1.50;;;;;;;;;;5033858;28;20021;-70
2023/09/03 10:31:37;;;;;;;2.97;1.60;;;;;;;;;;5033822;28;20022;-70
2023/09/03 10:34:07;;;;;;;2.97;1.92;;;;;;;;;;5024048;28;20026;-70
2023/09/03 10:36:33;;;;;;;3.88;1.75;;;;;;;;;;5014583;28;20029;-70
2023/09/03 10:39:06;;;;;;;3.55;2.00;;;;;;;;;;5014676;28;20033;-69
2023/09/03 10:41:31;;;;;;;5.72;1.88;;;;;;;;;;5026007;28;20044;-70
2023/09/03 10:43:56;;;;;;;3.75;1.55;;;;;;;;;;5033564;28;20025;-70
2023/09/03 10:46:22;;;;;;;2.30;1.50;;;;;;;;;;5017955;28;20096;-70
2023/09/03 10:48:54;;;;;;;3.22;1.90;;;;;;;;;;5014045;28;20045;-70
2023/09/03 10:51:33;;;;;;;3.42;1.60;;;;;;;;;;5014614;28;20030;-70
2023/09/03 10:54:18;;;;;;;2.70;1.80;;;;;;;;;;5014530;28;20080;-71
2023/09/03 10:57:02;;;;;;;5.60;1.77;;;;;;;;;;5016136;28;20101;-70
2023/09/03 10:59:47;;;;;;;2.97;1.95;;;;;;;;;;5032996;28;20511;-69
2023/09/03 11:02:32;;;;;;;2.35;1.58;;;;;;;;;;5023162;28;20065;-69
2023/09/03 11:05:13;;;;;;;4.55;2.00;;;;;;;;;;5013813;28;20041;-69
2023/09/03 11:07:42;;;;;;;2.20;1.50;;;;;;;;;;5013871;28;20045;-69
2023/09/03 11:10:20;;;;;;;3.78;1.67;;;;;;;;;;5013952;28;20022;-69
2023/09/03 11:12:46;;;;;;;3.20;2.00;;;;;;;;;;5013915;28;20390;-69
2023/09/03 11:15:11;;;;;;;7.75;1.60;;;;;;;;;;5014902;28;20038;-69
2023/09/03 11:17:36;;;;;;;2.92;1.70;;;;;;;;;;5005571;28;20026;-70
2023/09/03 11:20:01;;;;;;;3.37;1.67;;;;;;;;;;5013866;28;20032;-69
2023/09/03 11:22:28;;;;;;;2.78;1.75;;;;;;;;;;5013668;28;20282;-70
2023/09/03 11:24:53;;;;;;;10.70;1.92;;;;;;;;;;5013959;28;20022;-70
2023/09/03 11:27:18;;;;;;;5.43;1.85;;;;;;;;;;5020568;28;20147;-70
2023/09/03 11:29:43;;;;;;;2.43;1.50;;;;;;;;;;5025170;28;20099;-69
2023/09/03 11:32:08;;;;;;;4.90;1.80;;;;;;;;;;5013628;28;20026;-70
2023/09/03 11:34:34;;;;;;;3.73;1.77;;;;;;;;;;5013675;28;20026;-69
2023/09/03 11:36:59;;;;;;;5.80;1.63;;;;;;;;;;5013904;28;20105;-69
2023/09/03 11:39:24;;;;;;;3.70;1.33;;;;;;;;;;5013517;28;20109;-69
2023/09/03 11:41:49;;;;;;;5.50;1.83;;;;;;;;;;5013514;28;20029;-70
2023/09/03 11:44:15;;;;;;;3.27;1.70;;;;;;;;;;5013706;28;20274;-69
2023/09/03 11:46:54;;;;;;;5.40;1.80;;;;;;;;;;5032609;28;20060;-70
2023/09/03 11:49:23;;;;;;;1.80;1.42;;;;;;;;;;5032681;28;20124;-69
2023/09/03 11:51:48;;;;;;;1.77;1.40;;;;;;;;;;5014537;28;20038;-69
2023/09/03 11:54:23;;;;;;;4.83;1.53;;;;;;;;;;5012595;28;20381;-70
2023/09/03 11:56:48;;;;;;;4.35;1.60;;;;;;;;;;5012347;28;20547;-69
2023/09/03 11:59:13;;;;;;;3.03;1.70;;;;;;;;;;5012811;28;20025;-70
2023/09/03 12:01:38;;;;;;;4.20;1.67;;;;;;;;;;5001229;28;20316;-70
2023/09/03 12:04:04;;;;;;;3.60;1.83;;;;;;;;;;5012561;28;20026;-69
2023/09/03 12:06:34;;;;;;;2.75;1.40;;;;;;;;;;5012085;28;20064;-70
2023/09/03 12:08:59;;;;;;;3.35;1.67;;;;;;;;;;5012789;28;20109;-69
2023/09/03 12:11:28;;;;;;;8.20;1.87;;;;;;;;;;5004347;28;20123;-69
2023/09/03 12:13:53;;;;;;;2.83;1.77;;;;;;;;;;5012971;28;20291;-69
2023/09/03 12:16:22;;;;;;;3.37;1.43;;;;;;;;;;4996197;28;20116;-69
2023/09/03 12:19:13;;;;;;;4.05;1.75;;;;;;;;;;5012831;28;20029;-69
2023/09/03 12:21:39;;;;;;;3.17;1.27;;;;;;;;;;5015303;28;20091;-69
2023/09/03 12:24:05;;;;;;;2.40;1.73;;;;;;;;;;5016500;28;20104;-69
2023/09/03 12:26:31;;;;;;;2.08;1.60;;;;;;;;;;4998284;28;20267;-69
2023/09/03 12:28:58;;;;;;;3.15;1.90;;;;;;;;;;5010169;28;20021;-70
2023/09/03 12:31:37;;;;;;;3.63;1.75;;;;;;;;;;5008887;28;20382;-69
2023/09/03 12:34:02;;;;;;;5.43;1.70;;;;;;;;;;5009553;28;20033;-69
2023/09/03 12:36:27;;;;;;;6.57;1.80;;;;;;;;;;5014873;28;20018;-69
2023/09/03 12:39:04;;;;;;;4.60;1.70;;;;;;;;;;5016249;28;20021;-69
2023/09/03 12:41:37;;;;;;;2.67;1.70;;;;;;;;;;5005076;28;20022;-69
2023/09/03 12:44:06;;;;;;;5.88;2.17;;;;;;;;;;5012401;28;20363;-69
2023/09/03 12:46:33;;;;;;;3.22;2.10;;;;;;;;;;5011756;28;20041;-69
2023/09/03 12:48:58;;;;;;;3.92;1.63;;;;;;;;;;5005522;28;20018;-69
2023/09/03 12:51:23;;;;;;;6.60;1.98;;;;;;;;;;5015206;28;20544;-70
2023/09/03 12:53:48;;;;;;;3.23;1.60;;;;;;;;;;5016154;28;20033;-69
2023/09/03 12:56:14;;;;;;;2.73;1.63;;;;;;;;;;5016039;28;20044;-69
2023/09/03 12:58:39;;;;;;;3.03;1.85;;;;;;;;;;5016267;28;20243;-70
2023/09/03 13:01:05;;;;;;;3.28;1.50;;;;;;;;;;5016218;28;20455;-69
2023/09/03 13:03:31;;;;;;;4.50;1.98;;;;;;;;;;5016135;28;20022;-69
2023/09/03 13:05:56;;;;;;;3.87;1.60;;;;;;;;;;5015487;28;20030;-69
2023/09/03 13:08:22;;;;;;;4.07;1.80;;;;;;;;;;5015950;28;20091;-69
2023/09/03 13:10:47;;;;;;;4.25;1.80;;;;;;;;;;5015865;28;20097;-70
2023/09/03 13:13:12;;;;;;;1.93;1.63;;;;;;;;;;5015675;28;20068;-70
2023/09/03 13:15:38;;;;;;;3.80;2.10;;;;;;;;;;5015800;28;20048;-69
2023/09/03 13:18:04;;;;;;;4.38;2.08;;;;;;;;;;5015837;28;20014;-69
2023/09/03 13:20:29;;;;;;;2.88;1.65;;;;;;;;;;5014379;28;20040;-69
2023/09/03 13:22:54;;;;;;;3.43;1.57;;;;;;;;;;5015282;28;20111;-70
2023/09/03 13:25:19;;;;;;;4.27;2.00;;;;;;;;;;5015388;28;20155;-69
2023/09/03 13:27:44;;;;;;;2.53;1.53;;;;;;;;;;5015638;28;20474;-64
2023/09/03 13:30:10;;;;;;;3.73;1.80;;;;;;;;;;5015071;28;20022;-65
2023/09/03 13:32:35;;;;;;;3.78;1.70;;;;;;;;;;5015148;28;20342;-65
2023/09/03 13:35:00;;;;;;;3.57;1.33;;;;;;;;;;5010230;28;20026;-65
2023/09/03 13:37:26;;;;;;;5.93;1.85;;;;;;;;;;5012054;28;20029;-64
2023/09/03 13:39:51;;;;;;;3.53;1.70;;;;;;;;;;5006859;28;20049;-64
2023/09/03 13:42:16;;;;;;;1.93;1.60;;;;;;;;;;5014948;28;20061;-65
2023/09/03 13:44:41;;;;;;;3.17;2.00;;;;;;;;;;5014762;28;20036;-65
2023/09/03 13:47:06;;;;;;;2.93;1.87;;;;;;;;;;5014737;28;20549;-64
2023/09/03 13:49:32;;;;;;;5.53;1.70;;;;;;;;;;5012564;28;20299;-64
2023/09/03 13:51:57;;;;;;;3.63;2.00;;;;;;;;;;5003253;28;20466;-64
2023/09/03 13:54:22;;;;;;;4.33;1.97;;;;;;;;;;5014726;28;20080;-65
2023/09/03 13:56:47;;;;;;;4.87;2.03;;;;;;;;;;5014944;28;20065;-64
2023/09/03 13:59:13;;;;;;;3.57;1.87;;;;;;;;;;5006385;28;20022;-65
2023/09/03 14:01:38;;;;;;;3.90;2.13;;;;;;;;;;5014743;28;20287;-64
2023/09/03 14:04:04;;;;;;;2.88;1.48;;;;;;;;;;5014784;28;20489;-64
2023/09/03 14:06:29;;;;;;;2.88;1.63;;;;;;;;;;5007102;28;20062;-64
2023/09/03 14:08:56;;;;;;;3.23;1.83;;;;;;;;;;5013989;28;20460;-65
2023/09/03 14:11:22;;;;;;;3.85;2.20;;;;;;;;;;5014426;28;20104;-66
2023/09/03 14:13:48;;;;;;;4.28;2.28;;;;;;;;;;5014539;28;20030;-68
2023/09/03 14:16:14;;;;;;;3.38;1.95;;;;;;;;;;5013448;28;20037;-66
2023/09/03 14:18:39;;;;;;;3.72;2.13;;;;;;;;;;5000175;28;20017;-65
2023/09/03 14:21:08;;;;;;;2.83;2.00;;;;;;;;;;5003883;28;20429;-66
2023/09/03 14:23:33;;;;;;;7.25;2.30;;;;;;;;;;5005085;28;20057;-66
2023/09/03 14:25:58;;;;;;;6.05;2.03;;;;;;;;;;5014537;28;20076;-65
2023/09/03 14:28:23;;;;;;;2.73;1.90;;;;;;;;;;5014329;28;20026;-66
2023/09/03 14:30:49;;;;;;;3.27;2.00;;;;;;;;;;5006740;28;20054;-66
2023/09/03 14:33:14;;;;;;;4.20;2.13;;;;;;;;;;5001069;28;20535;-65
2023/09/03 14:35:39;;;;;;;7.15;2.28;;;;;;;;;;5013581;28;20255;-66
2023/09/03 14:38:04;;;;;;;4.43;2.33;;;;;;;;;;5012617;28;20466;-69